Time;durP1;ratioP1;P1;durP2;ratioP2;P2;SDS_P1;SDS_P2;PMS_P1;PMS_P2;Temp;Humidity;BMP_temperature;BMP_pressure;BME280_temperature;BME280_humidity;BME280_pressure;Samples;Min_cycle;Max_cycle;Signal;HPM_P1;HPM_P2
2022/06/06 00:07:34;;;;;;;5.40;4.90;;;;;;;14.49;52.64;99624.60;432503;1270;142326;-59
2022/06/06 00:17:37;;;;;;;5.50;4.90;;;;;;;14.31;53.20;99626.35;431476;1270;142557;-57
2022/06/06 00:27:40;;;;;;;5.70;5.20;;;;;;;14.12;53.93;99617.83;431916;1270;142369;-57
2022/06/06 00:37:43;;;;;;;5.30;4.00;;;;;;;13.98;54.67;99627.73;432617;1270;141200;-57
2022/06/06 00:47:49;;;;;;;5.20;4.70;;;;;;;13.67;55.52;99635.02;431308;1270;183760;-58
2022/06/06 00:57:56;;;;;;;5.70;4.70;;;;;;;13.27;56.37;99649.35;432128;1269;141610;-58
2022/06/06 01:07:59;;;;;;;6.70;4.40;;;;;;;12.84;57.56;99652.27;431317;1270;142333;-57
2022/06/06 01:18:09;;;;;;;5.80;4.90;;;;;;;12.52;58.08;99625.29;431273;1270;143256;-56
2022/06/06 01:28:49;;;;;;;6.10;5.60;;;;;;;12.31;58.84;99613.25;431326;1270;146020;-57
2022/06/06 01:38:52;;;;;;;7.80;7.10;;;;;;;12.29;59.77;99599.66;432799;1270;146350;-57
2022/06/06 01:48:56;;;;;;;8.70;7.70;;;;;;;12.33;60.59;99594.15;431142;1270;145797;-56
2022/06/06 01:58:59;;;;;;;10.60;8.10;;;;;;;12.40;61.33;99595.70;430999;1270;142236;-57
2022/06/06 02:09:02;;;;;;;10.60;9.50;;;;;;;12.43;61.94;99598.55;432321;1270;142266;-58
2022/06/06 02:19:07;;;;;;;9.60;8.50;;;;;;;12.45;62.38;99595.90;431612;1270;142515;-58
2022/06/06 02:29:10;;;;;;;9.10;8.10;;;;;;;12.54;62.69;99595.64;431105;1270;142056;-57
2022/06/06 02:39:13;;;;;;;10.20;9.30;;;;;;;12.59;62.93;99597.17;431247;1270;143088;-58
2022/06/06 02:49:17;;;;;;;10.20;9.30;;;;;;;12.78;63.33;99604.99;431711;1270;142400;-56
2022/06/06 02:59:21;;;;;;;10.50;9.50;;;;;;;13.41;62.81;99599.47;430833;1270;142173;-57
2022/06/06 03:09:37;;;;;;;9.30;8.40;;;;;;;15.33;61.80;99601.41;430754;1270;143186;-56
2022/06/06 03:30:22;;;;;;;9.10;8.10;;;;;;;17.54;54.85;99595.76;432685;1270;144533;-57
2022/06/06 03:40:38;;;;;;;9.60;8.70;;;;;;;16.70;55.34;99597.11;433771;1270;140893;-56
2022/06/06 03:50:50;;;;;;;9.40;8.60;;;;;;;16.33;56.02;99592.95;438271;1268;142135;-58
2022/06/06 04:00:55;;;;;;;9.00;8.10;;;;;;;16.69;56.08;99589.35;445059;1269;141024;-58
2022/06/06 04:11:14;;;;;;;9.10;6.40;;;;;;;17.74;54.94;99598.73;436169;1270;183801;-58
2022/06/06 04:21:25;;;;;;;;;;;;;;;19.16;53.01;99605.77;443279;1269;141827;-56
2022/06/06 04:31:38;;;;;;;7.80;7.10;;;;;;;21.35;49.81;99609.13;443093;1269;127954;-56
2022/06/06 04:41:46;;;;;;;7.50;6.80;;;;;;;23.65;46.31;99593.70;440195;1270;147113;-62
2022/06/06 04:51:51;;;;;;;7.50;6.70;;;;;;;27.12;42.11;99603.84;447505;1270;142213;-58
2022/06/06 05:01:55;;;;;;;6.10;5.60;;;;;;;30.60;37.26;99605.88;447081;1269;141601;-58
2022/06/06 05:12:11;;;;;;;5.90;5.40;;;;;;;33.60;32.59;99598.46;447900;1269;141937;-58
2022/06/06 05:22:34;;;;;;;5.30;4.90;;;;;;;37.27;28.20;99593.85;442660;1269;141953;-58
2022/06/06 05:32:58;;;;;;;4.40;4.10;;;;;;;39.50;24.90;99585.45;435847;1268;146703;-58
2022/06/06 05:43:13;;;;;;;4.60;4.20;;;;;;;39.64;22.74;99593.19;447783;1269;142331;-58
2022/06/06 05:53:41;;;;;;;4.60;4.20;;;;;;;38.76;22.32;99582.73;435176;1270;142572;-58
2022/06/06 06:04:05;;;;;;;4.40;4.10;;;;;;;38.70;22.11;99575.13;434499;1268;145344;-59
2022/06/06 06:14:24;;;;;;;4.40;4.00;;;;;;;39.20;21.07;99570.42;431474;1270;140985;-58
2022/06/06 06:24:30;;;;;;;5.10;4.50;;;;;;;36.25;22.49;99568.90;433520;1269;140821;-59
2022/06/06 06:34:47;;;;;;;4.70;3.90;;;;;;;36.32;23.10;99561.43;431767;1270;140406;-57
2022/06/06 06:45:00;;;;;;;4.50;4.10;;;;;;;36.08;23.02;99563.23;432460;1270;142566;-58
2022/06/06 06:55:18;;;;;;;4.70;3.80;;;;;;;36.11;23.75;99563.70;431297;1270;142070;-58
2022/06/06 07:15:54;;;;;;;5.10;3.40;;;;;;;35.00;24.51;99563.63;433101;1269;142006;-59
2022/06/06 07:25:59;;;;;;;3.30;3.00;;;;;;;37.76;23.17;99568.98;432245;1269;144016;-59
2022/06/06 07:36:15;;;;;;;2.70;2.50;;;;;;;41.92;19.64;99564.75;433177;1270;140974;-58
2022/06/06 07:46:27;;;;;;;3.10;2.70;;;;;;;42.93;18.07;99550.10;435210;1270;145297;-57
2022/06/06 07:56:43;;;;;;;2.40;2.10;;;;;;;39.27;18.71;99545.02;432293;1270;143218;-60
2022/06/06 08:06:52;;;;;;;2.70;2.60;;;;;;;33.04;22.55;99525.95;433003;1270;140726;-59
2022/06/06 08:17:05;;;;;;;2.40;2.10;;;;;;;31.11;24.79;99518.52;431811;1270;144892;-60
2022/06/06 08:27:12;;;;;;;2.20;2.00;;;;;;;29.71;26.66;99520.96;431095;1269;461686;-59
2022/06/06 08:37:32;;;;;;;2.60;2.50;;;;;;;28.31;27.79;99521.67;431942;1270;141315;-57
2022/06/06 08:47:56;;;;;;;3.10;2.80;;;;;;;27.33;30.00;99515.40;433485;1269;141289;-59
2022/06/06 08:58:20;;;;;;;3.10;2.90;;;;;;;26.98;30.85;99501.67;434634;1269;141618;-58
2022/06/06 09:09:07;;;;;;;4.40;3.60;;;;;;;26.87;31.43;99498.09;431812;1270;141115;-57
2022/06/06 09:19:50;;;;;;;3.60;3.30;;;;;;;26.72;32.20;99489.58;432878;1270;141594;-58
2022/06/06 09:30:26;;;;;;;3.00;2.80;;;;;;;26.99;32.25;99477.05;430928;1268;142303;-58
2022/06/06 09:40:35;;;;;;;6.00;3.30;;;;;;;26.73;32.77;99462.95;431079;1270;140797;-58
2022/06/06 09:51:17;;;;;;;3.70;3.40;;;;;;;26.99;33.14;99455.77;432550;1270;141565;-58
2022/06/06 10:02:01;;;;;;;4.60;3.10;;;;;;;27.22;33.24;99450.34;432150;1270;143289;-57
2022/06/06 10:12:35;;;;;;;5.70;3.30;;;;;;;27.43;33.26;99452.94;430976;1270;141392;-57
2022/06/06 10:23:06;;;;;;;4.80;4.20;;;;;;;27.15;33.34;99449.83;433470;1269;141995;-58
2022/06/06 10:33:39;;;;;;;4.50;4.10;;;;;;;26.87;34.43;99446.84;432408;1270;141084;-57
2022/06/06 10:43:58;;;;;;;4.10;3.80;;;;;;;26.51;35.08;99448.98;432485;1270;140999;-58
2022/06/06 10:54:22;;;;;;;4.20;3.90;;;;;;;26.50;35.72;99438.14;433594;1270;146386;-59
2022/06/06 11:04:56;;;;;;;4.00;3.70;;;;;;;27.05;35.51;99435.40;431150;1270;141790;-58
2022/06/06 11:15:03;;;;;;;3.80;3.50;;;;;;;27.69;35.11;99432.79;433652;1269;141243;-59
2022/06/06 11:25:13;;;;;;;4.50;4.20;;;;;;;28.45;34.32;99417.73;433204;1269;142061;-58
2022/06/06 11:35:28;;;;;;;6.30;4.20;;;;;;;28.19;33.61;99420.90;431923;1270;144907;-57
2022/06/06 11:45:54;;;;;;;4.30;4.00;;;;;;;27.70;34.54;99420.65;430901;1270;141322;-59
2022/06/06 11:56:15;;;;;;;4.60;4.10;;;;;;;27.55;34.60;99411.35;431953;1270;141325;-58
2022/06/06 12:06:59;;;;;;;5.90;5.30;;;;;;;27.66;35.10;99402.09;431372;1271;140863;-58
2022/06/06 12:17:12;;;;;;;4.40;4.10;;;;;;;27.91;34.93;99400.78;433582;1269;141725;-57
2022/06/06 12:27:30;;;;;;;5.00;4.20;;;;;;;27.84;35.05;99389.20;431672;1270;141862;-58
2022/06/06 12:37:42;;;;;;;4.80;4.40;;;;;;;27.88;34.87;99386.90;431668;1270;141922;-60
2022/06/06 12:48:07;;;;;;;4.40;4.00;;;;;;;28.18;34.78;99373.38;432327;1270;140488;-58
2022/06/06 12:58:22;;;;;;;5.60;4.80;;;;;;;28.48;34.71;99362.80;432675;1270;140669;-56
2022/06/06 13:08:52;;;;;;;6.20;4.00;;;;;;;28.48;34.95;99358.10;432515;1271;142916;-57
2022/06/06 13:19:21;;;;;;;5.30;4.70;;;;;;;28.45;34.78;99354.98;431962;1271;140930;-58
2022/06/06 13:29:31;;;;;;;5.40;5.00;;;;;;;28.06;35.03;99349.52;433566;1269;142063;-58
2022/06/06 13:40:06;;;;;;;5.40;5.00;;;;;;;27.90;35.68;99350.28;431989;1271;141757;-56
2022/06/06 13:50:17;;;;;;;5.20;4.80;;;;;;;27.91;35.84;99351.40;430807;1270;147571;-57
2022/06/06 14:00:27;;;;;;;4.90;4.50;;;;;;;27.83;35.79;99348.55;433473;1270;141567;-58
2022/06/06 14:10:56;;;;;;;4.70;4.30;;;;;;;28.06;35.95;99340.09;431503;1270;141701;-58
2022/06/06 14:21:03;;;;;;;5.30;4.80;;;;;;;28.46;35.50;99328.17;432548;1271;141434;-58
2022/06/06 14:31:22;;;;;;;10.80;5.30;;;;;;;28.55;35.58;99321.30;433564;1270;141340;-57
2022/06/06 14:41:40;;;;;;;5.70;5.30;;;;;;;28.47;35.33;99319.67;445298;1270;143127;-58
2022/06/06 14:51:47;;;;;;;5.50;5.00;;;;;;;28.30;35.47;99317.59;433920;1269;141715;-58
2022/06/06 15:02:09;;;;;;;5.40;5.00;;;;;;;27.95;35.95;99314.89;442500;1269;142362;-61
2022/06/06 15:12:24;;;;;;;8.20;6.00;;;;;;;27.71;36.17;99308.99;441515;1269;144592;-59
2022/06/06 15:22:31;;;;;;;7.80;7.00;;;;;;;27.60;36.53;99308.98;447785;1268;141884;-60
2022/06/06 15:32:42;;;;;;;5.70;5.20;;;;;;;27.15;37.23;99302.36;446950;1269;142429;-60
2022/06/06 15:42:46;;;;;;;6.70;6.20;;;;;;;26.87;38.21;99300.96;447797;1269;141747;-61
2022/06/06 15:53:04;;;;;;;7.60;5.60;;;;;;;26.77;38.58;99304.51;443921;1270;142516;-60
2022/06/06 16:03:35;;;;;;;7.80;7.00;;;;;;;25.64;42.19;99315.86;439717;1269;141174;-60
2022/06/06 16:13:55;;;;;;;8.60;7.90;;;;;;;24.69;44.35;99326.10;447737;1269;142437;-60
2022/06/06 16:24:03;;;;;;;8.90;7.60;;;;;;;24.10;46.16;99338.34;447773;1269;141653;-61
2022/06/06 16:34:24;;;;;;;10.60;9.50;;;;;;;23.53;48.66;99340.42;446635;1268;140748;-59
2022/06/06 16:55:08;;;;;;;13.60;12.10;;;;;;;22.28;52.74;99339.41;433691;1270;141859;-60
2022/06/06 17:07:45;;;;;;;16.20;13.00;;;;;;;21.73;55.77;99354.51;431588;1270;141905;-60
2022/06/06 17:15:50;;;;;;;16.90;15.40;;;;;;;21.12;58.92;99373.98;431853;1270;141805;-55
2022/06/06 17:25:54;;;;;;;18.60;16.90;;;;;;;20.63;62.02;99420.20;430221;1269;144572;-59
2022/06/06 17:36:14;;;;;;;19.70;17.00;;;;;;;20.30;63.93;99392.48;431028;1270;142809;-58
2022/06/06 17:46:24;;;;;;;16.50;14.90;;;;;;;20.41;65.44;99395.73;431568;1270;144583;-57
2022/06/06 17:56:39;;;;;;;18.60;17.00;;;;;;;20.34;65.89;99403.51;432019;1269;142493;-60
2022/06/06 18:07:07;;;;;;;17.10;15.40;;;;;;;20.20;66.29;99387.51;431445;1270;142376;-58
2022/06/06 18:17:25;;;;;;;19.30;17.50;;;;;;;19.85;66.82;99379.40;430927;1269;142088;-58
2022/06/06 18:27:30;;;;;;;;;;;;;;;19.61;67.70;99369.48;433043;1270;142317;-57
2022/06/06 18:37:42;;;;;;;21.20;19.20;;;;;;;19.36;68.58;99359.53;432356;1268;128371;-57
2022/06/06 18:47:47;;;;;;;22.50;20.30;;;;;;;19.16;69.48;99362.44;431735;1268;143833;-60
2022/06/06 18:57:59;;;;;;;22.50;20.40;;;;;;;19.09;70.55;99372.19;432195;1270;142390;-58
2022/06/06 19:08:15;;;;;;;23.60;21.30;;;;;;;19.09;71.54;99377.38;431176;1269;142855;-60
2022/06/06 19:18:23;;;;;;;22.80;20.70;;;;;;;19.07;72.19;99379.52;433282;1270;143761;-58
2022/06/06 19:28:31;;;;;;;25.00;22.80;;;;;;;18.97;72.80;99403.97;433185;1270;142907;-58
2022/06/06 19:38:34;;;;;;;26.00;23.60;;;;;;;18.68;73.24;99403.09;432717;1270;142804;-61
2022/06/06 19:49:01;;;;;;;25.30;23.00;;;;;;;18.52;73.56;99391.73;435918;1269;143554;-62
2022/06/06 19:59:07;;;;;;;25.50;23.20;;;;;;;18.46;73.75;99378.56;430394;1270;142996;-60
2022/06/06 20:09:15;;;;;;;24.60;22.30;;;;;;;18.45;74.38;99377.34;433671;1268;142723;-64
2022/06/06 20:19:28;;;;;;;26.10;23.70;;;;;;;18.51;74.61;99371.85;433565;1270;142719;-63
2022/06/06 20:29:35;;;;;;;25.60;23.30;;;;;;;18.52;74.58;99357.41;431560;1267;448411;-64
2022/06/06 20:39:42;;;;;;;24.70;22.50;;;;;;;18.49;74.88;99351.98;432062;1268;143198;-66
2022/06/06 20:49:52;;;;;;;24.10;21.90;;;;;;;18.44;75.30;99348.22;432202;1270;163239;-64
2022/06/06 20:59:57;;;;;;;24.90;22.60;;;;;;;18.39;75.66;99342.93;432555;1269;142714;-64
2022/06/06 21:10:06;;;;;;;25.80;23.50;;;;;;;18.35;75.87;99339.61;431777;1270;143552;-63
2022/06/06 21:20:11;;;;;;;26.70;24.20;;;;;;;18.31;76.27;99341.88;431273;1269;142714;-65
2022/06/06 21:30:16;;;;;;;28.40;25.90;;;;;;;18.29;76.48;99346.61;432238;1270;142490;-67
2022/06/06 21:40:21;;;;;;;25.40;23.20;;;;;;;18.24;77.05;99348.31;432437;1270;141676;-68
2022/06/06 21:50:25;;;;;;;25.80;23.40;;;;;;;18.19;77.47;99352.20;436643;1270;143851;-69
2022/06/06 22:00:44;;;;;;;24.20;22.10;;;;;;;18.18;77.69;99358.33;431350;1270;141780;-62
2022/06/06 22:10:52;;;;;;;24.80;22.50;;;;;;;18.16;77.95;99367.90;430872;1270;143239;-61
2022/06/06 22:20:56;;;;;;;25.10;22.90;;;;;;;18.19;78.25;99367.92;431307;1270;145041;-66
2022/06/06 22:30:59;;;;;;;24.20;22.10;;;;;;;18.23;78.34;99361.21;431399;1270;141667;-58
2022/06/06 22:41:03;;;;;;;24.60;22.10;;;;;;;18.22;78.41;99358.09;433674;1270;143186;-60
2022/06/06 22:51:07;;;;;;;25.10;22.90;;;;;;;18.17;78.54;99359.64;432661;1270;146816;-58
2022/06/06 23:01:15;;;;;;;25.50;23.20;;;;;;;18.08;78.47;99369.40;432578;1270;142992;-58
2022/06/06 23:11:18;;;;;;;26.30;24.00;;;;;;;18.02;78.48;99367.77;431421;1270;142438;-57
2022/06/06 23:21:22;;;;;;;23.60;21.40;;;;;;;17.93;78.54;99364.64;432563;1269;142674;-70
2022/06/06 23:31:25;;;;;;;23.80;21.60;;;;;;;17.88;78.63;99365.13;432230;1269;142530;-69
2022/06/06 23:41:29;;;;;;;22.90;20.90;;;;;;;17.78;78.61;99364.66;431735;1270;143501;-71
2022/06/06 23:51:58;;;;;;;22.90;20.80;;;;;;;17.54;78.43;99353.56;432424;1268;142575;-69
